createdAt,value
2023-01-21T00:05:40.505Z,69.40
2023-01-21T00:11:13.983Z,69.33
2023-01-21T00:16:45.022Z,69.53
2023-01-21T00:22:16.126Z,69.34
2023-01-21T00:27:47.419Z,69.40
2023-01-21T00:33:18.569Z,69.40
2023-01-21T00:38:49.786Z,69.13
2023-01-21T00:44:20.888Z,69.19
2023-01-21T00:49:52.003Z,69.28
2023-01-21T00:55:23.136Z,69.48
2023-01-21T01:01:20.879Z,69.54
2023-01-21T01:06:52.251Z,69.17
2023-01-21T01:12:23.544Z,69.33
2023-01-21T01:17:54.816Z,69.54
2023-01-21T01:23:25.942Z,69.48
2023-01-21T01:28:56.887Z,69.51
2023-01-21T01:34:28.050Z,69.15
2023-01-21T01:39:59.254Z,69.58
2023-01-21T01:45:30.253Z,69.51
2023-01-21T01:51:02.133Z,69.17
2023-01-21T01:56:33.128Z,69.70
2023-01-21T02:02:06.135Z,69.45
2023-01-21T02:07:39.660Z,69.49
2023-01-21T02:13:10.767Z,69.40
2023-01-21T02:18:48.024Z,69.31
2023-01-21T02:24:33.963Z,69.08
2023-01-21T02:30:19.915Z,69.74
2023-01-21T02:35:53.519Z,69.13
2023-01-21T02:41:43.241Z,69.63
2023-01-21T02:47:27.135Z,69.15
2023-01-21T02:52:58.294Z,69.65
2023-01-21T02:58:29.741Z,69.46
2023-01-21T03:04:08.245Z,69.54
2023-01-21T03:09:39.432Z,69.54
2023-01-21T03:15:29.128Z,69.29
2023-01-21T03:21:04.344Z,69.34
2023-01-21T03:26:39.547Z,69.40
2023-01-21T03:32:11.625Z,69.37
2023-01-21T03:37:44.090Z,69.67
2023-01-21T03:43:14.934Z,69.71
2023-01-21T03:48:58.374Z,69.51
2023-01-21T03:54:29.521Z,69.30
2023-01-21T04:00:00.724Z,69.34
2023-01-21T04:05:31.699Z,69.78
2023-01-21T04:11:02.843Z,69.34
2023-01-21T04:16:33.624Z,69.51
2023-01-21T04:22:04.711Z,69.44
2023-01-21T04:27:35.846Z,69.63
2023-01-21T04:33:06.953Z,69.72
2023-01-21T04:38:39.936Z,69.85
2023-01-21T04:44:11.025Z,69.72
2023-01-21T04:49:42.369Z,69.81
2023-01-21T04:55:13.702Z,69.76
2023-01-21T05:00:44.686Z,69.75
2023-01-21T05:06:15.286Z,69.73
2023-01-21T05:11:46.392Z,69.86
2023-01-21T05:17:17.646Z,69.82
2023-01-21T05:22:49.151Z,69.88
2023-01-21T05:28:20.147Z,69.47
2023-01-21T05:33:51.321Z,69.94
2023-01-21T05:39:22.468Z,69.91
2023-01-21T05:44:53.426Z,69.87
2023-01-21T05:50:24.313Z,69.96
2023-01-21T05:55:55.662Z,69.82
2023-01-21T06:01:27.001Z,69.76
2023-01-21T06:06:58.353Z,69.71
2023-01-21T06:12:29.613Z,69.97
2023-01-21T06:18:01.425Z,69.83
2023-01-21T06:23:32.648Z,69.71
2023-01-21T06:29:04.036Z,69.86
2023-01-21T06:34:35.044Z,70.15
2023-01-21T06:40:06.332Z,69.68
2023-01-21T06:45:37.479Z,69.90
2023-01-21T06:51:08.575Z,70.05
2023-01-21T06:56:41.194Z,69.91
2023-01-21T07:02:12.893Z,69.72
2023-01-21T07:07:43.911Z,69.51
2023-01-21T07:13:15.098Z,69.81
2023-01-21T07:18:46.307Z,69.98
2023-01-21T07:24:17.202Z,69.79
2023-01-21T07:29:48.200Z,70.01
2023-01-21T07:35:19.742Z,69.82
2023-01-21T07:40:51.014Z,69.91
2023-01-21T07:46:22.905Z,70.13
2023-01-21T07:51:56.349Z,69.87
2023-01-21T07:57:27.361Z,69.91
2023-01-21T08:02:58.904Z,69.97
2023-01-21T08:08:30.384Z,69.42
2023-01-21T08:14:01.470Z,69.86
2023-01-21T08:19:32.460Z,69.97
2023-01-21T08:25:03.599Z,69.57
2023-01-21T08:30:34.737Z,69.71
2023-01-21T08:36:06.761Z,69.85
2023-01-21T08:41:37.758Z,69.90
2023-01-21T08:47:08.592Z,69.84
2023-01-21T08:52:39.615Z,69.62
2023-01-21T08:58:10.535Z,69.97
2023-01-21T09:03:41.681Z,69.90
2023-01-21T09:09:12.922Z,70.04
2023-01-21T09:14:44.032Z,69.64
2023-01-21T09:20:15.184Z,70.23
2023-01-21T09:25:46.354Z,70.14
2023-01-21T09:31:18.412Z,69.98
2023-01-21T09:36:49.660Z,70.46
2023-01-21T09:42:21.631Z,70.08
2023-01-21T09:47:52.724Z,70.18
2023-01-21T09:53:27.913Z,70.04
2023-01-21T09:59:04.540Z,69.88
2023-01-21T10:04:41.174Z,69.89
2023-01-21T10:10:20.905Z,70.10
2023-01-21T10:15:52.019Z,70.21
2023-01-21T10:21:28.236Z,70.27
2023-01-21T10:26:59.376Z,70.12
2023-01-21T10:32:30.617Z,70.35
2023-01-21T10:38:04.506Z,70.14
2023-01-21T10:43:37.106Z,70.21
2023-01-21T10:49:08.140Z,70.25
2023-01-21T10:54:50.349Z,69.98
2023-01-21T11:00:24.562Z,70.21
2023-01-21T11:05:55.741Z,69.97
2023-01-21T11:11:27.976Z,70.27
2023-01-21T11:16:58.868Z,70.08
2023-01-21T11:22:31.207Z,70.26
2023-01-21T11:28:02.974Z,70.00
2023-01-21T11:33:34.068Z,70.52
2023-01-21T11:39:06.115Z,70.45
2023-01-21T11:44:37.030Z,70.03
2023-01-21T11:50:12.151Z,70.51
2023-01-21T11:55:45.376Z,70.15
2023-01-21T12:01:20.650Z,70.09
2023-01-21T12:06:53.922Z,70.20
2023-01-21T12:12:28.081Z,70.30
2023-01-21T12:18:06.175Z,70.13
2023-01-21T12:23:52.612Z,70.30
2023-01-21T12:29:29.119Z,70.18
2023-01-21T12:35:04.735Z,70.43
2023-01-21T12:40:44.951Z,70.53
2023-01-21T12:46:26.065Z,70.61
2023-01-21T12:51:58.791Z,70.23
2023-01-21T12:57:31.999Z,70.56
2023-01-21T13:03:24.674Z,70.50
2023-01-21T13:09:08.074Z,70.61
2023-01-21T13:14:39.967Z,70.68
2023-01-21T13:20:15.651Z,70.45
2023-01-21T13:25:53.214Z,70.15
2023-01-21T13:31:24.217Z,70.51
2023-01-21T13:37:04.060Z,70.18
2023-01-21T13:42:53.826Z,70.26
2023-01-21T13:48:24.832Z,70.59
2023-01-21T13:54:14.371Z,70.40
2023-01-21T14:00:05.713Z,70.31
2023-01-21T14:05:50.946Z,70.21
2023-01-21T14:11:23.976Z,70.74
2023-01-21T14:16:59.682Z,70.62
2023-01-21T14:22:30.484Z,70.27
2023-01-21T14:28:36.946Z,70.62
2023-01-21T14:34:16.057Z,70.31
2023-01-21T14:39:52.772Z,70.58
2023-01-21T14:45:26.006Z,70.56
2023-01-21T14:51:09.672Z,70.31
2023-01-21T14:56:40.659Z,70.56
2023-01-21T15:02:28.522Z,70.41
2023-01-21T15:08:10.951Z,70.21
2023-01-21T15:13:42.234Z,70.39
2023-01-21T15:19:14.864Z,70.44
2023-01-21T15:25:03.519Z,70.65
2023-01-21T15:30:50.530Z,70.29
2023-01-21T15:36:28.745Z,70.64
2023-01-21T15:42:04.444Z,70.57
2023-01-21T15:47:47.712Z,70.97
2023-01-21T15:53:31.341Z,70.89
2023-01-21T15:59:02.639Z,70.81
2023-01-21T16:04:35.888Z,70.42
2023-01-21T16:10:12.716Z,70.48
2023-01-21T16:16:02.580Z,70.73
2023-01-21T16:21:34.529Z,70.50
2023-01-21T16:27:18.128Z,70.46
2023-01-21T16:33:07.749Z,71.01
2023-01-21T16:38:38.672Z,70.71
2023-01-21T16:44:10.006Z,70.47
2023-01-21T16:49:43.297Z,70.51
2023-01-21T16:55:19.073Z,70.71
2023-01-21T17:01:08.615Z,70.58
2023-01-21T17:06:39.704Z,70.59
2023-01-21T17:12:15.214Z,70.57
2023-01-21T17:17:46.408Z,70.60
2023-01-21T17:23:26.069Z,70.51
2023-01-21T17:28:58.196Z,70.68
2023-01-21T17:34:32.879Z,70.40
2023-01-21T17:40:04.662Z,70.82
2023-01-21T17:45:36.901Z,70.60
2023-01-21T17:51:15.335Z,70.45
2023-01-21T17:56:53.161Z,70.52
2023-01-21T18:02:24.970Z,70.45
2023-01-21T18:07:56.414Z,70.38
2023-01-21T18:13:27.611Z,70.49
2023-01-21T18:18:58.716Z,70.44
2023-01-21T18:24:30.185Z,70.51
2023-01-21T18:30:02.020Z,70.89
2023-01-21T18:35:32.738Z,70.63
2023-01-21T18:41:03.949Z,70.87
2023-01-21T18:46:39.664Z,70.46
2023-01-21T18:52:12.157Z,70.44
2023-01-21T18:57:43.598Z,70.51
2023-01-21T19:03:15.616Z,70.42
2023-01-21T19:08:48.860Z,70.55
2023-01-21T19:14:20.125Z,70.33
2023-01-21T19:19:51.057Z,70.33
2023-01-21T19:25:23.143Z,70.45
2023-01-21T19:30:55.810Z,70.27
2023-01-21T19:36:26.974Z,70.68
2023-01-21T19:42:08.080Z,70.62
2023-01-21T19:47:41.762Z,70.44
2023-01-21T19:53:17.644Z,70.27
2023-01-21T19:58:49.145Z,70.20
2023-01-21T20:04:20.435Z,70.27
2023-01-21T20:09:51.651Z,70.64
2023-01-21T20:15:23.746Z,70.24
2023-01-21T20:20:54.861Z,70.58
2023-01-21T20:26:26.335Z,70.48
2023-01-21T20:31:58.505Z,70.53
2023-01-21T20:37:29.833Z,70.41
2023-01-21T20:43:00.905Z,70.42
2023-01-21T20:48:33.767Z,70.12
2023-01-21T20:54:04.625Z,70.60
2023-01-21T20:59:35.547Z,70.07
2023-01-21T21:05:06.749Z,70.22
2023-01-21T21:10:37.811Z,70.26
2023-01-21T21:16:32.212Z,70.40
2023-01-21T21:22:03.641Z,70.36
2023-01-21T21:27:35.120Z,70.57
2023-01-21T21:33:08.395Z,70.68
2023-01-21T21:38:40.413Z,70.90
2023-01-21T21:44:11.707Z,70.31
2023-01-21T21:49:42.896Z,70.72
2023-01-21T21:55:15.673Z,70.89
2023-01-21T22:00:46.685Z,70.75
2023-01-21T22:06:18.514Z,70.43
2023-01-21T22:11:49.372Z,71.07
2023-01-21T22:17:20.350Z,70.75
2023-01-21T22:22:51.595Z,70.94
2023-01-21T22:28:23.093Z,70.85
2023-01-21T22:33:54.026Z,70.86
2023-01-21T22:39:25.300Z,70.84
2023-01-21T22:44:56.624Z,70.55
2023-01-21T22:50:28.014Z,70.82
2023-01-21T22:56:03.285Z,70.72
2023-01-21T23:01:34.377Z,70.52
2023-01-21T23:07:05.691Z,70.50
2023-01-21T23:12:36.808Z,70.84
2023-01-21T23:18:08.084Z,70.57
2023-01-21T23:23:39.202Z,70.71
2023-01-21T23:29:10.335Z,71.18
2023-01-21T23:34:41.387Z,70.58
2023-01-21T23:40:13.127Z,71.15
2023-01-21T23:45:44.004Z,70.84
2023-01-21T23:51:15.984Z,71.01
2023-01-21T23:56:47.272Z,71.07
